Time;durP1;ratioP1;P1;durP2;ratioP2;P2;SDS_P1;SDS_P2;PMS_P1;PMS_P2;Temp;Humidity;BMP_temperature;BMP_pressure;BME280_temperature;BME280_humidity;BME280_pressure;Samples;Min_cycle;Max_cycle;Signal;HPM_P1;HPM_P2
2022/12/11 00:04:36;;;;;;;7.78;4.07;;;;;;;18.88;35.34;101069.63;16120288;19;130227;-61
2022/12/11 00:09:57;;;;;;;7.63;3.78;;;;;;;18.84;35.57;101060.94;16126363;19;129796;-61
2022/12/11 00:15:19;;;;;;;5.45;3.75;;;;;;;18.82;35.50;101059.53;16122528;19;130791;-62
2022/12/11 00:20:41;;;;;;;7.75;3.75;;;;;;;18.78;35.44;101061.91;16119825;19;130536;-62
2022/12/11 00:26:05;;;;;;;6.28;3.80;;;;;;;18.75;35.34;101068.81;16121438;19;129959;-62
2022/12/11 00:31:27;;;;;;;5.05;3.33;;;;;;;18.73;35.55;101068.19;16121320;19;129176;-61
2022/12/11 00:36:49;;;;;;;7.05;4.00;;;;;;;18.69;35.33;101063.38;16121740;19;130226;-62
2022/12/11 00:42:11;;;;;;;6.07;3.70;;;;;;;18.67;35.53;101066.41;16120635;19;129553;-62
2022/12/11 00:47:32;;;;;;;9.18;3.22;;;;;;;18.65;35.63;101059.41;16123254;19;130341;-61
2022/12/11 00:52:54;;;;;;;5.13;3.25;;;;;;;18.62;35.47;101052.44;16120463;19;130645;-62
2022/12/11 00:58:16;;;;;;;4.50;3.00;;;;;;;18.58;35.70;101045.72;16117006;19;129912;-62
2022/12/11 01:03:38;;;;;;;5.32;3.30;;;;;;;18.56;35.72;101043.16;16119063;19;130031;-61
2022/12/11 01:14:40;;;;;;;5.45;3.05;;;;;;;18.51;35.92;101051.38;16127808;19;130589;-61
2022/12/11 01:20:04;;;;;;;4.78;3.00;;;;;;;18.51;35.89;101044.97;16136284;19;129260;-62
2022/12/11 01:25:27;;;;;;;8.13;2.70;;;;;;;18.48;35.71;101051.00;16134183;19;130165;-61
2022/12/11 01:30:48;;;;;;;3.75;2.70;;;;;;;18.44;35.86;101043.19;16136511;19;129095;-62
2022/12/11 01:36:17;;;;;;;5.03;3.00;;;;;;;18.42;35.66;101052.81;16134805;19;129804;-61
2022/12/11 01:41:38;;;;;;;4.13;2.53;;;;;;;18.40;36.04;101050.28;16136421;19;128875;-62
2022/12/11 01:47:00;;;;;;;4.65;3.05;;;;;;;18.37;35.67;101050.75;16131312;19;136259;-62
2022/12/11 01:52:22;;;;;;;6.30;2.63;;;;;;;18.36;35.98;101051.81;16132325;19;129725;-62
2022/12/11 01:57:47;;;;;;;4.38;2.95;;;;;;;18.34;36.19;101051.22;16132206;19;128910;-62
2022/12/11 02:03:09;;;;;;;3.65;2.40;;;;;;;18.33;36.06;101048.69;16131502;19;130596;-62
2022/12/11 02:08:31;;;;;;;3.22;2.35;;;;;;;18.30;35.99;101052.81;16129817;19;130225;-62
2022/12/11 02:14:27;;;;;;;4.07;2.45;;;;;;;18.28;36.13;101050.25;16133076;19;129392;-62
2022/12/11 02:20:02;;;;;;;3.78;2.50;;;;;;;18.27;35.72;101050.50;16130855;19;129309;-62
2022/12/11 02:25:54;;;;;;;3.70;2.60;;;;;;;18.25;36.05;101041.59;16123575;19;129929;-62
2022/12/11 02:31:33;;;;;;;4.75;2.50;;;;;;;18.23;35.82;101043.75;16131591;19;130235;-62
2022/12/11 02:37:04;;;;;;;3.80;2.60;;;;;;;18.20;36.02;101038.72;16130775;19;130426;-63
2022/12/11 02:42:30;;;;;;;3.70;2.10;;;;;;;18.19;36.08;101037.03;16127763;19;128891;-62
2022/12/11 02:47:51;;;;;;;3.28;1.92;;;;;;;18.16;35.93;101027.25;16130922;19;129598;-60
2022/12/11 02:53:17;;;;;;;3.08;2.15;;;;;;;18.15;35.80;101036.66;16127540;19;129428;-63
2022/12/11 02:58:46;;;;;;;3.03;2.70;;;;;;;18.13;36.11;101025.00;16130065;19;129508;-59
2022/12/11 03:04:08;;;;;;;3.28;2.60;;;;;;;18.10;36.22;101018.00;16127842;19;129547;-69
2022/12/11 03:09:30;;;;;;;2.60;2.20;;;;;;;18.09;36.26;101009.94;16127981;19;129523;-65
2022/12/11 03:14:52;;;;;;;4.30;2.30;;;;;;;18.07;35.84;101003.78;16130487;19;129753;-65
2022/12/11 03:20:35;;;;;;;2.90;2.15;;;;;;;18.08;36.24;101003.56;16127600;19;130039;-67
2022/12/11 03:26:02;;;;;;;2.67;2.00;;;;;;;18.06;35.97;100991.88;16128779;19;129493;-68
2022/12/11 03:31:49;;;;;;;3.80;2.30;;;;;;;18.04;35.92;100996.81;16127666;19;130038;-65
2022/12/11 03:37:13;;;;;;;2.90;2.30;;;;;;;18.02;36.09;100993.44;16126200;19;129998;-64
2022/12/11 03:42:36;;;;;;;2.85;1.75;;;;;;;18.00;36.34;100987.28;16128463;19;129122;-61
2022/12/11 03:48:01;;;;;;;2.55;2.00;;;;;;;18.00;35.96;100990.06;16125853;19;130018;-62
2022/12/11 03:53:25;;;;;;;3.20;2.03;;;;;;;17.97;36.36;100985.88;16126439;19;130090;-61
2022/12/11 03:58:47;;;;;;;2.90;2.03;;;;;;;17.97;36.01;100985.03;16126120;19;130575;-61
2022/12/11 04:04:09;;;;;;;2.90;1.90;;;;;;;17.95;36.00;100973.34;16123725;19;129580;-61
2022/12/11 04:09:31;;;;;;;2.42;1.70;;;;;;;17.94;36.42;100974.44;16123899;19;130919;-63
2022/12/11 04:15:01;;;;;;;3.10;2.15;;;;;;;17.92;36.02;100963.59;16123011;19;129071;-62
2022/12/11 04:26:06;;;;;;;3.58;2.17;;;;;;;17.89;36.48;100960.47;16122462;19;129607;-62
2022/12/11 04:31:28;;;;;;;3.92;1.92;;;;;;;17.87;36.29;100954.31;16121598;19;129501;-62
2022/12/11 04:36:50;;;;;;;2.72;1.60;;;;;;;17.85;36.06;100949.03;16121853;19;129962;-63
2022/12/11 04:42:12;;;;;;;3.13;1.63;;;;;;;17.85;36.51;100937.97;16122789;19;131380;-61
2022/12/11 04:47:36;;;;;;;2.67;2.00;;;;;;;17.83;36.46;100929.91;16119389;19;130436;-62
2022/12/11 04:52:57;;;;;;;2.35;1.70;;;;;;;17.81;36.29;100929.31;16120748;19;129689;-62
2022/12/11 04:58:19;;;;;;;5.25;1.70;;;;;;;17.81;36.56;100936.75;16118310;19;129236;-62
2022/12/11 05:03:41;;;;;;;3.65;1.60;;;;;;;17.80;36.34;100935.94;16119351;19;129754;-62
2022/12/11 05:09:03;;;;;;;2.25;1.70;;;;;;;17.79;36.55;100928.69;16118494;19;129400;-63
2022/12/11 05:14:26;;;;;;;2.25;1.65;;;;;;;17.78;36.37;100943.63;16117294;19;129462;-62
2022/12/11 05:19:49;;;;;;;2.65;1.63;;;;;;;17.77;36.46;100941.94;16121171;19;129384;-63
2022/12/11 05:25:10;;;;;;;2.55;1.67;;;;;;;17.77;36.34;100946.63;16119764;19;129459;-66
2022/12/11 05:30:33;;;;;;;3.67;1.60;;;;;;;17.76;36.46;100940.25;16120637;19;129734;-64
2022/12/11 05:35:54;;;;;;;3.45;1.83;;;;;;;17.75;36.15;100938.56;16117415;19;130115;-63
2022/12/11 05:41:19;;;;;;;2.55;1.42;;;;;;;17.75;36.61;100943.25;16122436;19;131246;-62
2022/12/11 05:46:40;;;;;;;5.40;1.80;;;;;;;17.74;36.33;100941.56;16116628;19;134024;-63
2022/12/11 05:52:02;;;;;;;2.45;1.70;;;;;;;17.73;36.41;100940.72;16115058;19;130152;-63
2022/12/11 05:57:24;;;;;;;3.15;1.70;;;;;;;17.71;36.22;100945.66;16114044;19;130215;-63
2022/12/11 06:02:46;;;;;;;3.60;1.67;;;;;;;17.70;36.53;100935.69;16111660;19;130889;-63
2022/12/11 06:08:08;;;;;;;6.72;1.77;;;;;;;17.69;36.26;100931.22;16124376;19;131080;-63
2022/12/11 06:13:31;;;;;;;3.92;1.95;;;;;;;17.67;36.46;100925.09;16130135;19;130663;-63
2022/12/11 06:18:53;;;;;;;3.47;1.83;;;;;;;17.66;36.38;100926.16;16131236;19;129573;-62
2022/12/11 06:24:18;;;;;;;6.03;1.63;;;;;;;17.63;36.31;100929.41;16131812;19;129790;-63
2022/12/11 06:29:40;;;;;;;2.40;1.75;;;;;;;17.61;36.27;100920.50;16133901;19;129399;-62
2022/12/11 06:35:02;;;;;;;7.30;2.17;;;;;;;17.60;36.14;100927.97;16132671;19;129770;-62
2022/12/11 06:40:24;;;;;;;5.43;1.88;;;;;;;17.77;35.97;100925.34;16129872;19;129380;-63
2022/12/11 06:45:46;;;;;;;4.05;1.60;;;;;;;18.25;35.44;100934.44;16130806;19;129203;-62
2022/12/11 06:51:11;;;;;;;3.35;1.67;;;;;;;18.86;35.22;100931.28;16130006;19;129178;-60
2022/12/11 06:56:33;;;;;;;4.70;1.70;;;;;;;19.55;34.50;100931.38;16131626;19;130001;-60
2022/12/11 07:01:55;;;;;;;4.15;1.52;;;;;;;20.03;33.97;100920.75;16131592;19;129648;-61
2022/12/11 07:07:18;;;;;;;3.47;1.90;;;;;;;20.22;33.56;100935.19;16130002;19;129923;-61
2022/12/11 07:12:40;;;;;;;3.17;1.48;;;;;;;20.26;33.46;100931.63;16129913;19;129440;-61
2022/12/11 07:18:02;;;;;;;2.05;1.60;;;;;;;20.18;33.42;100932.09;16128554;19;129716;-61
2022/12/11 07:23:23;;;;;;;3.58;1.58;;;;;;;20.04;33.34;100933.56;16124998;19;129790;-60
2022/12/11 07:28:46;;;;;;;2.53;1.42;;;;;;;19.88;33.71;100947.19;16132009;19;129207;-43
2022/12/11 07:34:11;;;;;;;9.52;2.92;;;;;;;19.67;33.05;100941.31;16128098;19;129081;-57
2022/12/11 07:39:33;;;;;;;4.70;2.22;;;;;;;19.60;32.95;100959.22;16127116;19;129413;-57
2022/12/11 07:44:54;;;;;;;7.13;2.67;;;;;;;19.65;32.62;100953.75;16127512;19;129685;-57
2022/12/11 07:50:16;;;;;;;8.07;2.70;;;;;;;19.69;32.71;100957.72;16136702;19;129265;-54
2022/12/11 07:55:38;;;;;;;7.60;2.63;;;;;;;19.68;32.75;100950.47;16129802;19;129790;-59
2022/12/11 08:01:00;;;;;;;3.95;2.95;;;;;;;19.59;32.48;100952.81;16129802;19;129387;-59
2022/12/11 08:06:28;;;;;;;8.60;3.38;;;;;;;19.48;32.12;100953.75;16129408;19;129301;-58
2022/12/11 08:11:50;;;;;;;7.18;3.05;;;;;;;19.35;32.44;100952.16;16128816;19;129649;-57
2022/12/11 08:17:12;;;;;;;8.38;3.65;;;;;;;19.22;32.27;100954.16;16124844;19;129253;-57
2022/12/11 08:22:34;;;;;;;8.35;3.58;;;;;;;19.11;32.06;100959.72;16123669;19;129733;-58
2022/12/11 08:27:55;;;;;;;7.45;3.75;;;;;;;19.08;31.83;100959.13;16123197;19;129463;-55
2022/12/11 08:33:17;;;;;;;12.15;3.92;;;;;;;19.15;31.92;100956.19;16123534;19;130037;-55
2022/12/11 08:38:40;;;;;;;17.67;3.85;;;;;;;19.24;31.73;100959.44;16125163;19;130494;-54
2022/12/11 08:44:01;;;;;;;9.48;3.25;;;;;;;19.34;31.69;100942.97;16122285;19;130447;-54
2022/12/11 08:49:26;;;;;;;16.52;3.85;;;;;;;19.41;31.09;100945.59;16119580;19;130519;-53
2022/12/11 08:54:54;;;;;;;17.05;3.47;;;;;;;19.48;31.07;100949.06;16117994;19;129365;-56
2022/12/11 09:00:17;;;;;;;10.20;3.30;;;;;;;19.54;31.26;100949.97;16118586;19;135439;-57
2022/12/11 09:05:39;;;;;;;5.82;3.10;;;;;;;19.57;31.04;100943.06;16122801;19;130445;-56
2022/12/11 09:11:09;;;;;;;8.90;3.42;;;;;;;19.63;31.14;100947.63;16121918;19;131027;-53
2022/12/11 09:16:31;;;;;;;13.02;3.38;;;;;;;19.66;31.06;100945.19;16120077;19;129480;-58
2022/12/11 09:21:52;;;;;;;5.78;2.88;;;;;;;19.69;31.47;100935.50;16120268;19;129396;-53
2022/12/11 09:27:14;;;;;;;10.15;3.25;;;;;;;19.68;31.41;100942.13;16119195;19;129629;-60
2022/12/11 09:32:36;;;;;;;8.98;3.30;;;;;;;19.64;31.63;100940.97;16121351;19;130936;-59
2022/12/11 09:37:57;;;;;;;7.85;3.33;;;;;;;19.63;31.47;100942.91;16137338;19;129608;-59
2022/12/11 09:43:41;;;;;;;6.07;3.42;;;;;;;19.62;31.20;100938.44;16137097;19;129817;-62
2022/12/11 09:49:10;;;;;;;7.47;3.08;;;;;;;19.60;31.79;100934.25;16136380;19;129963;-59
2022/12/11 09:54:33;;;;;;;9.25;3.67;;;;;;;19.59;31.82;100927.84;16135989;19;130882;-61
2022/12/11 10:00:04;;;;;;;5.13;3.15;;;;;;;19.57;31.48;100924.47;16136403;19;129534;-62
2022/12/11 10:05:35;;;;;;;4.55;2.90;;;;;;;19.53;31.85;100915.81;16132576;19;129504;-61
2022/12/11 10:11:42;;;;;;;7.18;3.05;;;;;;;19.59;32.17;100919.53;16133146;19;129511;-61
2022/12/11 10:17:11;;;;;;;5.97;2.83;;;;;;;19.63;32.09;100923.47;16124125;19;129961;-62
2022/12/11 10:22:33;;;;;;;9.95;2.67;;;;;;;19.84;32.19;100921.00;16124916;19;131113;-62
2022/12/11 10:27:56;;;;;;;4.65;2.75;;;;;;;20.20;32.20;100915.16;16120499;19;129858;-63
2022/12/11 10:33:30;;;;;;;7.15;2.35;;;;;;;20.57;31.70;100912.56;16123066;19;130331;-61
2022/12/11 10:38:52;;;;;;;6.05;2.33;;;;;;;20.88;31.38;100914.88;16123623;19;130208;-61
2022/12/11 10:44:22;;;;;;;4.95;1.85;;;;;;;21.17;31.25;100918.22;16124492;19;129162;-60
2022/12/11 10:49:58;;;;;;;6.40;2.45;;;;;;;21.35;31.13;100910.59;16130823;19;129344;-60
2022/12/11 10:55:25;;;;;;;8.45;2.33;;;;;;;21.44;31.53;100894.25;16123509;19;129393;-62
2022/12/11 11:00:58;;;;;;;4.72;1.90;;;;;;;21.53;31.39;100895.44;16128206;19;130363;-59
2022/12/11 11:06:22;;;;;;;3.63;2.10;;;;;;;21.58;31.44;100889.09;16117710;19;129596;-60
2022/12/11 11:11:49;;;;;;;2.75;1.70;;;;;;;21.59;31.22;100887.97;16128807;19;129474;-60
2022/12/11 11:17:16;;;;;;;5.85;2.40;;;;;;;21.50;31.29;100888.47;16128547;19;129696;-61
2022/12/11 11:22:44;;;;;;;12.45;2.15;;;;;;;21.39;31.72;100894.19;16106281;19;130427;-60
2022/12/11 11:28:20;;;;;;;4.50;1.83;;;;;;;21.23;31.87;100896.88;16130071;19;130278;-59
2022/12/11 11:33:57;;;;;;;4.27;1.70;;;;;;;21.10;32.18;100900.09;16130214;19;129565;-60
2022/12/11 11:39:30;;;;;;;5.30;1.70;;;;;;;20.97;32.35;100901.34;16126180;19;129546;-60
2022/12/11 11:45:08;;;;;;;2.33;1.40;;;;;;;20.85;32.49;100894.00;16129640;19;129575;-61
2022/12/11 11:50:34;;;;;;;2.33;1.45;;;;;;;20.75;32.26;100894.72;16129269;19;129668;-61
2022/12/11 11:56:13;;;;;;;2.70;1.48;;;;;;;20.66;32.94;100889.88;16128783;19;129802;-61
2022/12/11 12:01:35;;;;;;;2.58;1.40;;;;;;;20.57;32.62;100895.06;16127953;19;129479;-61
2022/12/11 12:07:16;;;;;;;2.42;1.48;;;;;;;20.47;33.12;100889.38;16121878;19;129932;-60
2022/12/11 12:12:42;;;;;;;2.25;1.25;;;;;;;20.38;32.81;100877.88;16127609;19;129466;-61
2022/12/11 12:18:22;;;;;;;;;;;;;;;20.27;32.69;100877.75;16125905;19;129750;-61
2022/12/11 12:23:50;;;;;;;2.40;1.25;;;;;;;20.22;32.75;100869.34;16126241;19;129169;-61
2022/12/11 12:29:34;;;;;;;2.63;1.35;;;;;;;20.16;32.79;100872.31;16125687;19;130049;-60
2022/12/11 12:35:14;;;;;;;2.95;1.52;;;;;;;20.10;32.98;100865.88;16126181;19;130446;-61
2022/12/11 12:40:47;;;;;;;3.55;1.40;;;;;;;20.04;32.76;100855.81;16125088;19;129754;-61
2022/12/11 12:46:23;;;;;;;3.63;1.55;;;;;;;20.01;32.99;100856.31;16126399;19;129306;-60
2022/12/11 12:51:46;;;;;;;3.13;1.63;;;;;;;19.97;32.68;100845.69;16126626;19;130623;-63
2022/12/11 12:57:08;;;;;;;3.20;1.67;;;;;;;19.91;32.81;100834.75;16124217;19;129774;-55
2022/12/11 13:02:30;;;;;;;3.53;1.70;;;;;;;19.84;32.50;100835.81;16126401;19;129265;-61
2022/12/11 13:07:59;;;;;;;7.60;1.83;;;;;;;19.80;32.72;100840.19;16127368;19;131562;-62
2022/12/11 13:13:31;;;;;;;6.47;1.80;;;;;;;19.73;32.70;100838.69;16140551;19;129752;-62
2022/12/11 13:18:53;;;;;;;6.70;2.28;;;;;;;19.60;32.59;100829.63;16141370;19;129240;-60
2022/12/11 13:24:24;;;;;;;2.25;1.60;;;;;;;19.54;32.73;100830.66;16138802;19;129821;-61
2022/12/11 13:29:46;;;;;;;4.43;1.50;;;;;;;19.44;32.95;100834.13;16136202;19;129562;-61
2022/12/11 13:35:15;;;;;;;6.55;2.10;;;;;;;19.36;32.80;100832.59;16132012;19;129978;-61
2022/12/11 13:40:40;;;;;;;3.85;1.83;;;;;;;19.29;33.15;100843.03;16134890;19;129464;-61
2022/12/11 13:46:06;;;;;;;4.85;2.33;;;;;;;19.22;33.23;100845.13;16133520;19;129409;-62
2022/12/11 13:51:29;;;;;;;;;;;;;;;19.12;32.95;100850.47;16136711;19;129499;-60
2022/12/11 13:57:07;;;;;;;3.95;2.00;;;;;;;19.09;33.36;100846.28;16131961;19;130237;-62
2022/12/11 14:02:37;;;;;;;4.03;2.10;;;;;;;19.02;33.27;100845.59;16134893;19;129645;-62
2022/12/11 14:08:08;;;;;;;6.45;1.60;;;;;;;18.94;33.52;100846.88;16135875;19;129890;-62
2022/12/11 14:13:39;;;;;;;10.18;3.13;;;;;;;18.97;33.12;100856.63;16135446;19;129471;-62
2022/12/11 14:19:08;;;;;;;8.50;3.03;;;;;;;19.10;33.45;100847.13;16132202;19;129729;-62
2022/12/11 14:24:30;;;;;;;6.57;3.00;;;;;;;19.25;33.61;100844.63;16133430;19;129819;-62
2022/12/11 14:29:52;;;;;;;15.88;2.92;;;;;;;19.41;33.69;100842.13;16132853;19;129639;-60
2022/12/11 14:35:26;;;;;;;6.68;2.63;;;;;;;19.47;33.51;100841.06;16132586;19;129798;-61
2022/12/11 14:40:54;;;;;;;14.32;2.60;;;;;;;19.44;33.38;100841.63;16133259;19;129259;-62
2022/12/11 14:46:22;;;;;;;9.60;3.10;;;;;;;19.42;32.95;100860.44;16130917;19;129547;-61
2022/12/11 14:51:45;;;;;;;10.73;3.00;;;;;;;19.39;32.80;100845.13;16130652;19;129708;-62
2022/12/11 14:57:17;;;;;;;6.53;2.53;;;;;;;19.55;32.61;100846.22;16129743;19;129632;-62
2022/12/11 15:02:39;;;;;;;12.80;2.15;;;;;;;19.96;32.52;100854.28;16120652;19;129486;-62
2022/12/11 15:08:02;;;;;;;5.85;2.42;;;;;;;20.28;31.82;100865.56;16125535;19;129975;-62
2022/12/11 15:13:24;;;;;;;13.25;2.70;;;;;;;20.52;32.04;100868.06;16119867;19;131679;-62
2022/12/11 15:18:52;;;;;;;3.22;2.22;;;;;;;20.70;31.54;100864.06;16116357;19;131045;-62
2022/12/11 15:24:29;;;;;;;6.00;2.15;;;;;;;20.77;31.27;100866.69;16130034;19;129365;-61
2022/12/11 15:29:51;;;;;;;5.35;2.03;;;;;;;20.73;31.51;100859.91;16130331;19;129446;-62
2022/12/11 15:35:26;;;;;;;6.28;1.92;;;;;;;20.65;31.36;100860.41;16106640;19;131498;-62
2022/12/11 15:40:48;;;;;;;7.03;2.13;;;;;;;20.48;31.52;100866.88;16118409;19;130392;-61
2022/12/11 15:46:10;;;;;;;6.32;1.98;;;;;;;20.34;31.50;100874.78;16131528;19;130267;-62
2022/12/11 15:51:31;;;;;;;3.38;1.88;;;;;;;20.18;31.68;100871.00;16129790;19;129449;-62
2022/12/11 15:56:58;;;;;;;5.03;1.92;;;;;;;20.05;31.77;100879.69;16131871;19;129818;-61
2022/12/11 16:02:20;;;;;;;8.95;1.88;;;;;;;19.94;32.40;100876.72;16130953;19;129249;-62
2022/12/11 16:07:42;;;;;;;6.15;2.10;;;;;;;19.83;32.21;100878.53;16126637;19;130399;-61
2022/12/11 16:13:03;;;;;;;5.45;1.90;;;;;;;19.73;32.23;100883.09;16126318;19;129414;-62
2022/12/11 16:18:25;;;;;;;5.97;1.60;;;;;;;19.63;32.34;100879.06;16124826;19;128970;-61
2022/12/11 16:23:47;;;;;;;4.30;1.45;;;;;;;19.61;32.77;100875.72;16126721;19;130553;-61
2022/12/11 16:29:09;;;;;;;4.13;1.60;;;;;;;19.62;32.58;100873.78;16124752;19;129615;-62
2022/12/11 16:34:31;;;;;;;3.30;1.55;;;;;;;19.62;32.69;100865.47;16126280;19;129972;-61
2022/12/11 16:39:53;;;;;;;5.38;1.33;;;;;;;19.65;32.89;100870.47;16128933;19;129546;-61
2022/12/11 16:45:20;;;;;;;2.15;1.20;;;;;;;19.66;32.74;100866.63;16124126;19;129655;-62
2022/12/11 16:50:42;;;;;;;4.70;1.33;;;;;;;19.64;32.74;100871.56;16125637;19;130319;-68
2022/12/11 16:56:05;;;;;;;2.53;1.20;;;;;;;19.59;32.98;100861.25;16117371;19;129156;-68
2022/12/11 17:01:27;;;;;;;2.20;1.15;;;;;;;19.53;33.06;100856.72;16123712;19;130371;-67
2022/12/11 17:06:49;;;;;;;1.92;1.27;;;;;;;19.46;33.21;100861.59;16121949;19;129567;-64
2022/12/11 17:12:10;;;;;;;4.70;1.40;;;;;;;19.36;33.13;100857.56;16122059;19;129141;-64
2022/12/11 17:17:32;;;;;;;3.88;2.25;;;;;;;19.27;32.68;100850.78;16125381;19;132998;-63
2022/12/11 17:22:54;;;;;;;4.63;2.92;;;;;;;19.21;32.72;100854.53;16123089;19;130311;-62
2022/12/11 17:28:16;;;;;;;4.85;3.20;;;;;;;19.14;32.58;100848.31;16122393;19;129188;-62
2022/12/11 17:33:38;;;;;;;4.80;3.55;;;;;;;19.07;32.19;100851.25;16120547;19;131306;-63
2022/12/11 17:38:59;;;;;;;5.22;3.67;;;;;;;18.99;32.03;100849.72;16116834;19;132037;-62
2022/12/11 17:44:21;;;;;;;6.88;3.38;;;;;;;18.90;32.02;100848.47;16116922;19;129973;-62
2022/12/11 17:49:43;;;;;;;5.30;3.63;;;;;;;18.85;32.03;100840.03;16117757;19;129673;-62
2022/12/11 17:55:05;;;;;;;4.80;3.30;;;;;;;18.80;32.22;100838.03;16123959;19;130552;-62
2022/12/11 18:00:27;;;;;;;7.88;3.88;;;;;;;18.81;31.78;100830.56;16134687;19;130248;-61
2022/12/11 18:05:55;;;;;;;5.18;3.42;;;;;;;18.93;31.64;100836.88;16135881;19;130052;-61
2022/12/11 18:11:20;;;;;;;6.20;3.40;;;;;;;19.22;31.23;100836.81;16134631;19;131022;-61
2022/12/11 18:16:42;;;;;;;4.50;2.83;;;;;;;19.55;30.97;100843.44;16136135;19;129397;-62
2022/12/11 18:22:04;;;;;;;5.05;3.28;;;;;;;19.89;30.66;100842.50;16136973;19;129522;-62
2022/12/11 18:27:26;;;;;;;3.65;2.40;;;;;;;20.23;30.26;100843.25;16133840;19;129642;-62
2022/12/11 18:32:48;;;;;;;8.25;3.08;;;;;;;20.67;30.13;100847.09;16132737;19;130660;-62
2022/12/11 18:38:11;;;;;;;23.67;6.13;;;;;;;20.83;30.43;100840.59;16129779;19;130432;-67
2022/12/11 18:43:33;;;;;;;22.15;5.43;;;;;;;20.97;31.05;100834.59;16128994;19;133943;-66
2022/12/11 18:48:56;;;;;;;22.98;4.60;;;;;;;21.05;31.08;100846.06;16126876;19;129387;-64
2022/12/11 18:54:18;;;;;;;19.65;4.20;;;;;;;21.04;32.05;100840.78;16126746;19;130533;-66
2022/12/11 18:59:39;;;;;;;18.95;3.90;;;;;;;20.96;32.33;100844.03;16127256;19;129758;-66
2022/12/11 19:05:01;;;;;;;17.85;3.78;;;;;;;20.83;32.97;100851.72;16123688;19;129512;-64
2022/12/11 19:10:23;;;;;;;18.65;3.28;;;;;;;20.70;33.67;100850.19;16124814;19;129877;-59
2022/12/11 19:15:45;;;;;;;13.85;3.63;;;;;;;20.58;34.35;100847.53;16135046;19;129880;-62
2022/12/11 19:21:09;;;;;;;11.13;2.92;;;;;;;20.44;34.76;100849.91;16150409;19;129243;-63
2022/12/11 19:26:34;;;;;;;7.90;2.95;;;;;;;20.32;34.89;100851.97;16162258;19;131166;-64
2022/12/11 19:31:55;;;;;;;8.68;2.72;;;;;;;20.25;35.31;100857.72;16128920;19;130393;-64
2022/12/11 19:37:17;;;;;;;6.45;2.40;;;;;;;20.36;35.76;100852.28;16128818;19;131715;-64
2022/12/11 19:42:39;;;;;;;6.75;2.08;;;;;;;20.80;35.48;100852.22;16126140;19;129823;-64
2022/12/11 19:48:01;;;;;;;4.80;2.10;;;;;;;21.33;34.73;100858.00;16124906;19;129759;-64
2022/12/11 19:53:23;;;;;;;9.02;2.20;;;;;;;21.84;34.62;100859.47;16124890;19;130522;-63
2022/12/11 19:58:47;;;;;;;7.30;1.80;;;;;;;22.28;34.27;100863.84;16128862;19;129841;-63
2022/12/11 20:04:11;;;;;;;3.20;1.50;;;;;;;22.59;33.83;100863.97;16125628;19;129557;-64
2022/12/11 20:09:32;;;;;;;6.28;1.58;;;;;;;22.70;34.12;100867.63;16126016;19;133734;-65
2022/12/11 20:14:54;;;;;;;6.50;1.65;;;;;;;22.67;33.80;100866.22;16125425;19;130240;-63
2022/12/11 20:20:16;;;;;;;3.60;1.75;;;;;;;22.53;34.30;100867.84;16118802;19;129579;-65
2022/12/11 20:25:39;;;;;;;6.10;2.17;;;;;;;22.31;34.31;100865.28;16120580;19;130642;-63
2022/12/11 20:31:10;;;;;;;12.45;2.95;;;;;;;22.07;34.78;100862.94;16121591;19;129492;-63
2022/12/11 20:36:40;;;;;;;2.25;1.58;;;;;;;21.85;35.07;100877.00;16120379;19;129676;-63
2022/12/11 20:42:03;;;;;;;8.13;2.10;;;;;;;21.66;35.43;100881.06;16119372;19;129169;-64
2022/12/11 20:47:25;;;;;;;6.57;1.92;;;;;;;21.47;35.74;100875.06;16121090;19;130718;-63
2022/12/11 20:52:47;;;;;;;5.25;1.65;;;;;;;21.30;35.80;100879.91;16121158;19;129899;-62
2022/12/11 20:58:09;;;;;;;5.07;1.48;;;;;;;21.13;36.36;100883.69;16119191;19;130067;-64
2022/12/11 21:03:31;;;;;;;11.60;2.10;;;;;;;20.97;36.76;100884.66;16121142;19;128887;-64
2022/12/11 21:09:01;;;;;;;8.55;1.98;;;;;;;20.84;36.76;100892.31;16117001;19;130086;-64
2022/12/11 21:14:23;;;;;;;5.60;1.90;;;;;;;20.69;36.64;100892.13;16118250;19;130070;-64
2022/12/11 21:19:45;;;;;;;9.25;2.25;;;;;;;20.54;36.64;100901.97;16117852;19;129573;-69
2022/12/11 21:25:07;;;;;;;12.30;2.75;;;;;;;20.40;35.91;100895.13;16139814;19;129963;-66
2022/12/11 21:30:29;;;;;;;4.75;2.00;;;;;;;20.27;36.17;100904.69;16130003;19;130329;-68
2022/12/11 21:35:58;;;;;;;20.00;3.45;;;;;;;20.18;36.76;100904.31;16138216;19;129990;-67
2022/12/11 21:41:22;;;;;;;12.13;2.53;;;;;;;20.10;36.83;100904.75;16151908;19;129286;-68
2022/12/11 21:46:44;;;;;;;9.70;2.43;;;;;;;19.99;36.55;100899.06;16176565;19;128933;-67
2022/12/11 21:52:09;;;;;;;10.02;2.72;;;;;;;19.94;37.09;100904.50;16190583;19;129722;-67
2022/12/11 21:57:31;;;;;;;9.50;2.63;;;;;;;19.86;37.07;100907.72;16144340;19;129493;-69
2022/12/11 22:02:53;;;;;;;13.05;2.42;;;;;;;19.84;36.92;100909.91;16138786;19;129531;-70
2022/12/11 22:08:15;;;;;;;13.82;2.78;;;;;;;19.79;37.25;100926.50;16147821;19;129010;-68
2022/12/11 22:13:36;;;;;;;15.95;3.22;;;;;;;19.69;37.15;100918.84;16140326;19;130352;-65
2022/12/11 22:18:58;;;;;;;10.02;2.65;;;;;;;19.60;36.89;100921.19;16136327;19;129678;-66
2022/12/11 22:24:20;;;;;;;12.40;2.40;;;;;;;19.54;37.38;100930.56;16131190;19;130203;-64
2022/12/11 22:29:42;;;;;;;9.23;2.47;;;;;;;19.47;37.17;100919.63;16132343;19;130116;-65
2022/12/11 22:35:04;;;;;;;8.25;2.30;;;;;;;19.41;37.33;100920.63;16131915;19;130205;-65
2022/12/11 22:40:26;;;;;;;9.85;2.20;;;;;;;19.34;37.38;100923.56;16126799;19;130231;-65
2022/12/11 22:45:49;;;;;;;5.18;2.08;;;;;;;19.29;37.41;100917.06;16118766;19;131278;-64
2022/12/11 22:51:11;;;;;;;6.15;2.22;;;;;;;19.21;37.37;100916.41;16120367;19;130484;-64
2022/12/11 22:56:33;;;;;;;6.53;2.45;;;;;;;19.18;37.06;100921.59;16126906;19;130763;-65
2022/12/11 23:01:55;;;;;;;4.72;1.90;;;;;;;19.12;37.24;100928.97;16128157;19;129536;-66
2022/12/11 23:07:17;;;;;;;4.30;1.83;;;;;;;19.07;37.06;100935.28;16129731;19;129194;-65
2022/12/11 23:12:39;;;;;;;4.60;2.05;;;;;;;19.01;37.40;100933.50;16129737;19;129408;-65
2022/12/11 23:18:00;;;;;;;3.63;1.70;;;;;;;18.98;37.13;100938.69;16130822;19;129910;-64
2022/12/11 23:23:22;;;;;;;2.88;1.80;;;;;;;18.94;37.48;100941.13;16125798;19;131164;-67
2022/12/11 23:28:45;;;;;;;4.43;1.45;;;;;;;18.90;37.27;100942.72;16127204;19;129912;-64
2022/12/11 23:34:07;;;;;;;4.32;1.60;;;;;;;18.86;37.29;100947.06;16127016;19;129686;-66
2022/12/11 23:39:29;;;;;;;5.05;1.73;;;;;;;18.83;37.25;100947.56;16128660;19;130005;-65
2022/12/11 23:44:51;;;;;;;3.15;1.40;;;;;;;18.79;37.13;100941.66;16128713;19;129621;-65
2022/12/11 23:50:12;;;;;;;4.85;1.75;;;;;;;18.76;37.35;100942.16;16128204;19;132594;-66
2022/12/11 23:55:37;;;;;;;2.20;1.60;;;;;;;18.72;37.56;100939.03;16126272;19;129653;-65
